Time;durP1;ratioP1;P1;durP2;ratioP2;P2;SDS_P1;SDS_P2;PMS_P1;PMS_P2;Temp;Humidity;BMP_temperature;BMP_pressure;BME280_temperature;BME280_humidity;BME280_pressure;Samples;Min_cycle;Max_cycle;Signal;HPM_P1;HPM_P2
2022/12/23 00:01:07;;;;;;;83.38;16.45;;;8.50;99.90;;;;;;5115858;28;20047;-78
2022/12/23 00:03:34;;;;;;;68.95;16.65;;;8.40;99.90;;;;;;5114722;28;20087;-76
2022/12/23 00:06:00;;;;;;;82.67;15.57;;;8.50;99.90;;;;;;5114319;28;20047;-76
2022/12/23 00:08:27;;;;;;;61.83;14.00;;;8.50;99.90;;;;;;5115364;28;20388;-76
2022/12/23 00:10:55;;;;;;;85.25;14.18;;;8.50;99.90;;;;;;5115377;28;20426;-75
2022/12/23 00:16:07;;;;;;;81.63;14.23;;;8.50;99.90;;;;;;5115748;28;20052;-75
2022/12/23 00:18:34;;;;;;;50.75;11.75;;;8.50;99.90;;;;;;5114204;28;20101;-75
2022/12/23 00:21:05;;;;;;;52.17;12.75;;;8.50;99.90;;;;;;5115166;28;20126;-75
2022/12/23 00:23:33;;;;;;;63.28;13.98;;;8.50;99.90;;;;;;5115228;28;20488;-75
2022/12/23 00:25:58;;;;;;;56.90;12.93;;;8.50;99.90;;;;;;5115185;28;20066;-76
2022/12/23 00:28:26;;;;;;;57.08;13.70;;;8.50;99.90;;;;;;5114199;28;20039;-76
2022/12/23 00:30:54;;;;;;;59.20;13.60;;;8.50;99.90;;;;;;5115851;28;20053;-75
2022/12/23 00:33:22;;;;;;;57.10;13.40;;;8.60;99.90;;;;;;5114803;28;20502;-75
2022/12/23 00:35:49;;;;;;;58.72;13.35;;;8.60;99.90;;;;;;5114930;28;20046;-76
2022/12/23 00:38:15;;;;;;;95.30;15.73;;;8.60;99.90;;;;;;5132366;27;20237;-75
2022/12/23 00:43:26;;;;;;;59.55;13.00;;;8.60;99.90;;;;;;5117448;27;20054;-77
2022/12/23 00:45:53;;;;;;;57.05;13.02;;;8.50;99.90;;;;;;5135264;27;20047;-76
2022/12/23 00:51:03;;;;;;;69.70;13.93;;;8.60;99.90;;;;;;5119997;27;20047;-75
2022/12/23 00:53:29;;;;;;;55.88;12.77;;;8.60;99.90;;;;;;5135175;27;20047;-75
2022/12/23 00:55:54;;;;;;;60.83;12.98;;;8.60;99.90;;;;;;5116807;27;20050;-75
2022/12/23 00:58:20;;;;;;;54.83;12.48;;;8.60;99.90;;;;;;5134869;27;20043;-76
2022/12/23 01:06:16;;;;;;;61.75;12.88;;;8.60;99.90;;;;;;5135146;27;20054;-76
2022/12/23 01:08:42;;;;;;;132.73;16.25;;;8.60;99.90;;;;;;5116063;27;20039;-75
2022/12/23 01:11:10;;;;;;;101.15;15.90;;;8.60;99.90;;;;;;5135199;27;20043;-76
2022/12/23 01:13:37;;;;;;;75.35;15.45;;;8.60;99.90;;;;;;5134757;27;20043;-76
2022/12/23 01:16:07;;;;;;;76.57;14.85;;;8.70;99.90;;;;;;5135406;27;20058;-76
2022/12/23 01:18:34;;;;;;;78.57;16.48;;;8.60;99.90;;;;;;5136276;27;20122;-78
2022/12/23 01:21:08;;;;;;;109.20;18.50;;;8.70;99.90;;;;;;5099703;27;20388;-77
2022/12/23 01:23:34;;;;;;;110.55;16.98;;;8.70;99.90;;;;;;5135764;27;20433;-76
2022/12/23 01:26:05;;;;;;;90.43;17.30;;;8.70;99.90;;;;;;5116988;27;20046;-77
2022/12/23 01:28:32;;;;;;;89.10;16.77;;;8.70;99.90;;;;;;5116260;27;20364;-77
2022/12/23 01:30:59;;;;;;;89.75;17.95;;;8.70;99.90;;;;;;5135330;27;20050;-76
2022/12/23 01:33:25;;;;;;;97.13;17.58;;;8.60;99.90;;;;;;5116296;27;20367;-76
2022/12/23 01:35:51;;;;;;;100.55;17.60;;;8.70;99.90;;;;;;5116270;27;20084;-77
2022/12/23 01:38:17;;;;;;;94.50;19.48;;;8.70;99.90;;;;;;5134755;27;20448;-76
2022/12/23 01:40:44;;;;;;;109.88;18.20;;;8.70;99.90;;;;;;5116092;27;20072;-76
2022/12/23 01:43:18;;;;;;;96.97;17.85;;;8.70;99.90;;;;;;5134419;27;20126;-76
2022/12/23 01:45:44;;;;;;;101.03;18.35;;;8.70;99.90;;;;;;5134046;27;20463;-75
2022/12/23 01:48:17;;;;;;;115.33;18.93;;;8.70;99.90;;;;;;5133643;27;20103;-77
2022/12/23 01:50:57;;;;;;;127.65;18.95;;;8.70;99.90;;;;;;5116668;27;20051;-76
2022/12/23 01:53:42;;;;;;;102.47;18.52;;;8.70;99.90;;;;;;5134601;27;20047;-76
2022/12/23 01:56:34;;;;;;;146.38;19.55;;;8.60;99.90;;;;;;5134289;27;20490;-76
2022/12/23 01:59:04;;;;;;;146.40;19.23;;;8.60;99.90;;;;;;5124665;27;20134;-76
2022/12/23 02:04:21;;;;;;;104.70;16.77;;;8.60;99.90;;;;;;5133868;27;20083;-76
2022/12/23 02:09:36;;;;;;;100.68;17.48;;;8.60;99.90;;;;;;5133413;27;20482;-76
2022/12/23 02:12:11;;;;;;;107.00;17.75;;;8.70;99.90;;;;;;5133587;27;20119;-75
2022/12/23 02:17:55;;;;;;;98.82;16.33;;;8.60;99.90;;;;;;5133996;27;20065;-77
2022/12/23 02:20:35;;;;;;;118.95;17.95;;;8.60;99.90;;;;;;5134085;27;20382;-76
2022/12/23 02:23:07;;;;;;;136.18;20.33;;;8.60;99.90;;;;;;5133535;27;20107;-76
2022/12/23 02:25:56;;;;;;;84.22;16.33;;;8.60;99.90;;;;;;5134819;27;20078;-76
2022/12/23 02:28:44;;;;;;;73.57;12.82;;;8.60;99.90;;;;;;5115908;27;20043;-76
2022/12/23 02:31:17;;;;;;;53.33;10.57;;;8.50;99.90;;;;;;5133378;27;20543;-76
2022/12/23 02:33:46;;;;;;;47.72;8.65;;;8.50;99.90;;;;;;5133893;27;20106;-75
2022/12/23 02:36:30;;;;;;;44.55;8.38;;;8.40;99.90;;;;;;5133466;27;20151;-77
2022/12/23 02:39:10;;;;;;;50.20;9.27;;;8.40;99.90;;;;;;5133238;27;20047;-79
2022/12/23 02:41:57;;;;;;;51.38;8.45;;;8.40;99.90;;;;;;5133153;27;20500;-75
2022/12/23 02:44:38;;;;;;;56.40;10.02;;;8.30;99.90;;;;;;5133191;27;20051;-76
2022/12/23 02:47:19;;;;;;;55.05;9.13;;;8.30;99.90;;;;;;5114891;27;20521;-75
2022/12/23 02:49:50;;;;;;;51.90;11.38;;;8.30;99.90;;;;;;5114892;28;20091;-76
2022/12/23 02:52:19;;;;;;;57.80;10.07;;;8.30;99.90;;;;;;5115565;27;20043;-76
2022/12/23 02:54:50;;;;;;;57.67;11.32;;;8.30;99.90;;;;;;5133535;27;20107;-75
2022/12/23 02:57:21;;;;;;;57.65;10.00;;;8.20;99.90;;;;;;5132977;27;20066;-75
2022/12/23 02:59:50;;;;;;;60.03;10.05;;;8.20;99.90;;;;;;5133041;27;20126;-76
2022/12/23 03:02:16;;;;;;;48.33;10.70;;;8.20;99.90;;;;;;5132952;27;20126;-76
2022/12/23 03:04:42;;;;;;;44.38;9.38;;;8.20;99.90;;;;;;5133117;28;20130;-76
2022/12/23 03:07:15;;;;;;;46.58;9.57;;;8.20;99.90;;;;;;5133281;28;20203;-77
2022/12/23 03:09:49;;;;;;;51.05;10.30;;;8.10;99.90;;;;;;5133011;28;20047;-77
2022/12/23 03:12:20;;;;;;;48.22;10.60;;;8.10;99.90;;;;;;5133147;28;20043;-76
2022/12/23 03:15:17;;;;;;;58.17;11.20;;;8.10;99.90;;;;;;5133734;28;20130;-75
2022/12/23 03:17:42;;;;;;;49.60;10.27;;;8.00;99.90;;;;;;5132908;28;20446;-77
2022/12/23 03:20:23;;;;;;;55.35;10.45;;;8.00;99.90;;;;;;5132516;28;20192;-75
2022/12/23 03:22:57;;;;;;;57.78;10.38;;;8.00;99.90;;;;;;5115194;28;20051;-75
2022/12/23 03:25:49;;;;;;;62.35;11.02;;;8.00;99.90;;;;;;5132870;28;20050;-75
2022/12/23 03:28:24;;;;;;;55.75;10.80;;;7.90;99.90;;;;;;5096657;28;20083;-75
2022/12/23 03:30:53;;;;;;;55.63;10.95;;;7.90;99.90;;;;;;5133403;28;20047;-75
2022/12/23 03:33:22;;;;;;;72.93;13.00;;;7.90;99.90;;;;;;5133080;28;20039;-75
2022/12/23 03:35:55;;;;;;;52.90;10.27;;;7.90;99.90;;;;;;5097807;28;20043;-75
2022/12/23 03:38:22;;;;;;;58.88;10.85;;;7.90;99.90;;;;;;5133301;28;20062;-75
2022/12/23 03:40:56;;;;;;;66.68;14.38;;;7.90;99.90;;;;;;5133336;28;20119;-75
2022/12/23 03:43:31;;;;;;;65.97;12.93;;;7.90;99.90;;;;;;5132594;28;20055;-75
2022/12/23 03:46:01;;;;;;;68.07;11.75;;;7.80;99.90;;;;;;5115151;28;20542;-75
2022/12/23 03:48:47;;;;;;;75.93;12.80;;;7.80;99.90;;;;;;5132984;28;20115;-75
2022/12/23 03:51:18;;;;;;;78.57;13.25;;;7.80;99.90;;;;;;5133297;27;20058;-75
2022/12/23 03:53:52;;;;;;;76.18;13.13;;;7.80;99.90;;;;;;5136746;27;20055;-75
2022/12/23 03:56:53;;;;;;;82.43;12.55;;;7.80;99.90;;;;;;5119021;27;20043;-75
2022/12/23 03:59:25;;;;;;;77.70;13.80;;;7.80;99.90;;;;;;5092508;27;20043;-75
2022/12/23 04:02:01;;;;;;;82.18;13.68;;;7.70;99.90;;;;;;5138653;27;20133;-75
2022/12/23 04:05:07;;;;;;;89.60;14.52;;;7.70;99.90;;;;;;5139999;27;20130;-75
2022/12/23 04:07:41;;;;;;;94.20;14.73;;;7.70;99.90;;;;;;5139947;27;20057;-76
2022/12/23 04:10:08;;;;;;;105.80;17.60;;;7.70;99.90;;;;;;5142616;27;20118;-76
2022/12/23 04:12:36;;;;;;;90.93;15.60;;;7.70;99.90;;;;;;5141088;27;20039;-76
2022/12/23 04:15:02;;;;;;;122.75;17.45;;;7.60;99.90;;;;;;5140636;27;20050;-76
2022/12/23 04:17:28;;;;;;;108.78;16.83;;;7.60;99.90;;;;;;5137011;27;20047;-77
2022/12/23 04:19:54;;;;;;;113.72;16.73;;;7.70;99.90;;;;;;5137108;27;20087;-76
2022/12/23 04:22:20;;;;;;;111.55;16.75;;;7.60;99.90;;;;;;5136244;27;20092;-76
2022/12/23 04:24:46;;;;;;;112.20;16.95;;;7.60;99.90;;;;;;5100929;27;20470;-75
2022/12/23 04:27:13;;;;;;;121.15;17.33;;;7.70;99.90;;;;;;5136280;27;20088;-76
2022/12/23 04:29:39;;;;;;;136.95;17.35;;;7.70;99.90;;;;;;5117433;27;20158;-76
2022/12/23 04:32:05;;;;;;;102.35;15.38;;;7.70;99.90;;;;;;5083967;27;20084;-79
2022/12/23 04:34:31;;;;;;;132.75;18.15;;;7.70;99.90;;;;;;5135729;27;20122;-76
2022/12/23 04:36:56;;;;;;;170.20;19.90;;;7.70;99.90;;;;;;5135296;27;20054;-76
2022/12/23 04:39:22;;;;;;;152.43;17.35;;;7.60;99.90;;;;;;5135671;27;20130;-76
2022/12/23 04:41:48;;;;;;;153.73;18.88;;;7.70;99.90;;;;;;5135623;27;20134;-75
2022/12/23 04:44:13;;;;;;;145.43;19.98;;;7.60;99.90;;;;;;5135306;27;20066;-76
2022/12/23 04:46:40;;;;;;;174.88;18.60;;;7.70;99.90;;;;;;5135209;27;20171;-77
2022/12/23 04:49:05;;;;;;;125.45;17.30;;;7.60;99.90;;;;;;5135482;27;20079;-75
2022/12/23 04:51:31;;;;;;;133.82;17.08;;;7.60;99.90;;;;;;5116883;27;20089;-76
2022/12/23 04:53:57;;;;;;;139.70;18.73;;;7.60;99.90;;;;;;5135628;27;20043;-76
2022/12/23 04:56:23;;;;;;;117.43;15.88;;;7.50;99.90;;;;;;5117644;27;20217;-76
2022/12/23 04:58:48;;;;;;;111.22;15.52;;;7.60;99.90;;;;;;5135167;27;20043;-76
2022/12/23 05:01:14;;;;;;;114.47;17.60;;;7.50;99.90;;;;;;5116654;27;20043;-76
2022/12/23 05:03:40;;;;;;;102.40;14.25;;;7.50;99.90;;;;;;5116074;27;20455;-75
2022/12/23 05:06:06;;;;;;;78.80;13.55;;;7.50;99.90;;;;;;5116734;27;20050;-76
2022/12/23 05:08:32;;;;;;;103.70;16.58;;;7.50;99.90;;;;;;5135063;27;20065;-76
2022/12/23 05:10:58;;;;;;;96.03;13.30;;;7.50;99.90;;;;;;5116808;27;20416;-77
2022/12/23 05:13:24;;;;;;;103.30;14.80;;;7.50;99.90;;;;;;5134967;27;20047;-76
2022/12/23 05:15:52;;;;;;;93.22;14.35;;;7.50;99.90;;;;;;5134977;27;20137;-75
2022/12/23 05:18:19;;;;;;;73.82;12.35;;;7.50;99.90;;;;;;5116363;27;20078;-76
2022/12/23 05:20:45;;;;;;;74.55;12.23;;;7.40;99.90;;;;;;5135272;27;20053;-75
2022/12/23 05:23:11;;;;;;;84.78;13.75;;;7.40;99.90;;;;;;5116723;27;20146;-76
2022/12/23 05:25:37;;;;;;;98.97;14.82;;;7.40;99.90;;;;;;5134626;27;20043;-77
2022/12/23 05:28:04;;;;;;;78.10;11.77;;;7.40;99.90;;;;;;5134329;27;20039;-75
2022/12/23 05:30:30;;;;;;;86.50;13.43;;;7.30;99.90;;;;;;5134414;27;20047;-77
2022/12/23 05:32:57;;;;;;;81.40;12.15;;;7.30;99.90;;;;;;5134405;27;20070;-76
2022/12/23 05:35:24;;;;;;;121.25;14.63;;;7.30;99.90;;;;;;5116072;27;20053;-76
2022/12/23 05:37:50;;;;;;;;;;;7.20;99.90;;;;;;5134233;27;20047;-76
2022/12/23 05:40:15;;;;;;;106.63;12.60;;;7.20;99.90;;;;;;5134373;27;19932;-75
2022/12/23 05:42:41;;;;;;;125.20;13.75;;;7.20;99.90;;;;;;5133842;27;20449;-75
2022/12/23 05:45:07;;;;;;;117.80;13.95;;;7.30;99.90;;;;;;5115875;27;20224;-78
2022/12/23 05:47:33;;;;;;;138.93;12.18;;;7.30;99.90;;;;;;5115554;27;20363;-75
2022/12/23 05:49:59;;;;;;;121.50;14.52;;;7.30;99.90;;;;;;5133858;27;20038;-75
2022/12/23 05:52:24;;;;;;;146.50;13.05;;;7.30;99.90;;;;;;5115764;27;20097;-76
2022/12/23 05:54:50;;;;;;;247.75;17.27;;;7.30;99.90;;;;;;5134266;27;20043;-75
2022/12/23 05:57:16;;;;;;;110.30;15.30;;;7.30;99.90;;;;;;5115778;27;20395;-76
2022/12/23 05:59:42;;;;;;;104.45;16.52;;;7.30;99.90;;;;;;5115538;27;20410;-76
2022/12/23 06:02:07;;;;;;;96.82;15.77;;;7.30;99.90;;;;;;5133892;27;20046;-76
2022/12/23 06:04:33;;;;;;;124.38;18.15;;;7.40;99.90;;;;;;5116095;27;20047;-76
2022/12/23 06:06:59;;;;;;;116.85;15.50;;;7.40;99.90;;;;;;5133739;27;20051;-76
2022/12/23 06:09:25;;;;;;;118.32;14.70;;;7.40;99.90;;;;;;5115350;27;20133;-76
2022/12/23 06:11:50;;;;;;;111.30;14.48;;;7.40;99.90;;;;;;5134114;27;20146;-76
2022/12/23 06:14:16;;;;;;;111.45;12.80;;;7.30;99.90;;;;;;5134977;27;20047;-76
2022/12/23 06:16:42;;;;;;;404.92;20.38;;;7.40;99.90;;;;;;5134743;27;20051;-76
2022/12/23 06:19:07;;;;;;;184.18;15.20;;;7.30;99.90;;;;;;5117061;27;20114;-76
2022/12/23 06:21:33;;;;;;;207.40;14.70;;;7.30;99.90;;;;;;5134049;27;20047;-76
2022/12/23 06:23:59;;;;;;;176.48;14.20;;;7.30;99.90;;;;;;5133750;27;20146;-75
2022/12/23 06:26:25;;;;;;;132.98;14.25;;;7.30;99.90;;;;;;5115265;27;20115;-76
2022/12/23 06:28:50;;;;;;;100.70;13.32;;;7.30;99.90;;;;;;5114733;27;20487;-76
2022/12/23 06:31:16;;;;;;;243.95;16.42;;;7.30;99.90;;;;;;5133533;27;20095;-76
2022/12/23 06:33:42;;;;;;;131.45;13.85;;;7.40;99.90;;;;;;5133362;27;20087;-75
2022/12/23 06:36:08;;;;;;;125.80;13.88;;;7.50;99.90;;;;;;5133402;27;20115;-76
2022/12/23 06:38:34;;;;;;;151.85;15.13;;;7.40;99.90;;;;;;5114490;27;20055;-75
2022/12/23 06:41:00;;;;;;;173.23;14.43;;;7.40;99.90;;;;;;5133356;27;20070;-75
2022/12/23 06:43:26;;;;;;;301.50;17.75;;;7.40;99.90;;;;;;5114757;27;20126;-78
2022/12/23 06:45:52;;;;;;;255.93;16.35;;;7.40;99.90;;;;;;5133201;27;20069;-75
2022/12/23 06:48:17;;;;;;;250.15;16.15;;;7.40;99.90;;;;;;5133179;27;20044;-75
2022/12/23 06:50:43;;;;;;;171.45;14.43;;;7.40;99.90;;;;;;5133324;27;20090;-76
2022/12/23 06:53:10;;;;;;;365.35;20.15;;;7.40;99.90;;;;;;5133297;27;20047;-76
2022/12/23 06:55:35;;;;;;;163.73;14.10;;;7.40;99.90;;;;;;5133127;27;20483;-75
2022/12/23 06:58:01;;;;;;;405.75;21.75;;;7.30;99.90;;;;;;5133692;27;20054;-76
2022/12/23 07:00:27;;;;;;;240.05;15.98;;;7.30;99.90;;;;;;5133038;27;20097;-79
2022/12/23 07:02:53;;;;;;;233.07;16.05;;;7.30;99.90;;;;;;5133037;27;20043;-78
2022/12/23 07:05:19;;;;;;;202.32;15.05;;;7.30;99.90;;;;;;5133148;27;20103;-76
2022/12/23 07:07:45;;;;;;;261.88;17.05;;;7.40;99.90;;;;;;5133112;28;20467;-76
2022/12/23 07:10:11;;;;;;;210.45;16.55;;;7.30;99.90;;;;;;5133284;28;20047;-74
2022/12/23 07:12:36;;;;;;;221.13;17.17;;;7.30;99.90;;;;;;5132863;28;20124;-75
2022/12/23 07:15:03;;;;;;;102.13;13.60;;;7.30;99.90;;;;;;5132990;28;20089;-76
2022/12/23 07:17:28;;;;;;;206.40;16.33;;;7.30;99.90;;;;;;5132788;28;20043;-79
2022/12/23 07:19:54;;;;;;;180.75;15.02;;;7.40;99.90;;;;;;5132872;28;20346;-74
2022/12/23 07:22:20;;;;;;;191.15;15.75;;;7.40;99.90;;;;;;5132932;28;20107;-75
2022/12/23 07:24:45;;;;;;;233.63;17.42;;;7.40;99.90;;;;;;5132857;28;20122;-75
2022/12/23 07:27:11;;;;;;;517.65;25.13;;;7.30;99.90;;;;;;5135412;27;20039;-76
2022/12/23 07:29:37;;;;;;;325.13;20.13;;;7.30;99.90;;;;;;5137192;27;20360;-75
2022/12/23 07:32:03;;;;;;;169.80;15.68;;;7.30;99.90;;;;;;5137425;27;20046;-75
2022/12/23 07:34:29;;;;;;;174.93;16.08;;;7.30;99.90;;;;;;5137202;27;20055;-74
2022/12/23 07:36:54;;;;;;;194.13;14.43;;;7.40;99.90;;;;;;5137134;27;20048;-75
2022/12/23 07:39:20;;;;;;;340.33;18.00;;;7.30;99.90;;;;;;5137011;27;20105;-75
2022/12/23 07:41:46;;;;;;;174.35;14.90;;;7.30;99.90;;;;;;5118658;27;20051;-76
2022/12/23 07:44:12;;;;;;;124.95;14.40;;;7.30;99.90;;;;;;5136830;27;20065;-75
2022/12/23 07:46:38;;;;;;;107.32;13.68;;;7.30;99.90;;;;;;5101227;27;20047;-77
2022/12/23 07:49:04;;;;;;;97.20;11.82;;;7.30;99.90;;;;;;5118314;27;20149;-78
2022/12/23 07:51:30;;;;;;;77.85;11.85;;;7.40;99.90;;;;;;5084390;27;20489;-78
2022/12/23 07:53:56;;;;;;;76.90;12.40;;;7.40;99.90;;;;;;5136608;27;20047;-76
2022/12/23 07:56:22;;;;;;;134.50;14.73;;;7.30;99.90;;;;;;5118438;27;20300;-77
2022/12/23 07:58:49;;;;;;;82.05;11.63;;;7.30;99.90;;;;;;5118225;27;20474;-76
2022/12/23 08:01:15;;;;;;;114.40;13.80;;;7.20;99.90;;;;;;5136586;27;20039;-76
2022/12/23 08:03:41;;;;;;;132.77;13.10;;;7.20;99.90;;;;;;5136374;27;20129;-76
2022/12/23 08:06:11;;;;;;;99.88;13.10;;;7.20;99.90;;;;;;5118180;27;20129;-77
2022/12/23 08:08:38;;;;;;;84.72;12.15;;;7.20;99.90;;;;;;5118494;27;20126;-75
2022/12/23 08:11:06;;;;;;;82.35;11.63;;;7.20;99.90;;;;;;5136129;27;20061;-76
2022/12/23 08:13:34;;;;;;;248.60;16.10;;;7.20;99.90;;;;;;5100836;27;20051;-76
2022/12/23 08:16:01;;;;;;;213.82;15.60;;;7.20;99.90;;;;;;5135855;27;20058;-75
2022/12/23 08:18:29;;;;;;;123.20;13.32;;;7.20;99.90;;;;;;5117886;27;20039;-76
2022/12/23 08:20:57;;;;;;;71.43;13.18;;;7.30;99.90;;;;;;5136186;27;20178;-75
2022/12/23 08:23:24;;;;;;;73.82;13.00;;;7.20;99.90;;;;;;5135373;27;20046;-76
2022/12/23 08:26:01;;;;;;;129.70;15.13;;;7.30;99.90;;;;;;5136106;27;20047;-76
2022/12/23 08:28:27;;;;;;;71.05;13.32;;;7.40;99.90;;;;;;5134591;27;20064;-77
2022/12/23 08:30:53;;;;;;;110.40;15.63;;;7.30;99.90;;;;;;5134541;27;20516;-75
2022/12/23 08:33:19;;;;;;;111.07;13.18;;;7.40;99.90;;;;;;5116616;27;20184;-75
2022/12/23 08:35:44;;;;;;;68.07;12.88;;;7.40;99.90;;;;;;5117703;27;20482;-75
2022/12/23 08:38:10;;;;;;;85.38;13.23;;;7.50;99.90;;;;;;5134282;27;20208;-75
2022/12/23 08:40:39;;;;;;;80.07;12.90;;;7.50;99.90;;;;;;5135774;27;20065;-75
2022/12/23 08:43:05;;;;;;;94.40;13.25;;;7.50;99.90;;;;;;5135623;27;20050;-75
2022/12/23 08:45:34;;;;;;;87.78;12.32;;;7.60;99.90;;;;;;5135706;27;20039;-76
2022/12/23 08:48:00;;;;;;;79.60;12.10;;;7.60;99.90;;;;;;5117211;27;20083;-75
2022/12/23 08:50:25;;;;;;;92.05;12.68;;;7.60;99.90;;;;;;5135523;27;20173;-76
2022/12/23 08:52:51;;;;;;;49.63;10.23;;;7.60;99.90;;;;;;5135404;27;20043;-75
2022/12/23 08:55:17;;;;;;;54.10;11.13;;;7.50;99.90;;;;;;5117313;27;20458;-76
2022/12/23 08:57:42;;;;;;;47.92;11.30;;;7.50;99.90;;;;;;5117438;27;20047;-78
2022/12/23 09:00:09;;;;;;;48.72;10.70;;;7.50;99.90;;;;;;5139053;27;20043;-76
2022/12/23 09:02:34;;;;;;;44.70;10.07;;;7.60;99.90;;;;;;5141540;27;20058;-76
2022/12/23 09:05:00;;;;;;;42.50;9.73;;;7.60;99.90;;;;;;5140241;27;20368;-76
2022/12/23 09:07:26;;;;;;;62.47;11.93;;;7.60;99.90;;;;;;5104499;27;20047;-75
2022/12/23 09:09:51;;;;;;;72.05;11.57;;;7.60;99.90;;;;;;5103693;27;20126;-75
2022/12/23 09:12:17;;;;;;;55.95;14.63;;;7.60;99.90;;;;;;5137045;27;20047;-75
2022/12/23 09:14:46;;;;;;;58.67;13.30;;;7.60;99.90;;;;;;5119619;27;20092;-76
2022/12/23 09:17:12;;;;;;;56.55;11.65;;;7.60;99.90;;;;;;5138138;27;20127;-76
2022/12/23 09:19:38;;;;;;;68.80;12.13;;;7.60;99.90;;;;;;5137237;27;20061;-76
2022/12/23 09:22:03;;;;;;;74.13;11.05;;;7.60;99.90;;;;;;5100772;27;20047;-76
2022/12/23 09:24:30;;;;;;;69.60;12.38;;;7.60;99.90;;;;;;5135510;27;20097;-76
2022/12/23 09:26:55;;;;;;;61.97;12.15;;;7.60;99.90;;;;;;5134949;27;20375;-77
2022/12/23 09:29:22;;;;;;;71.00;14.00;;;7.60;99.90;;;;;;5099342;27;20054;-77
2022/12/23 09:31:47;;;;;;;93.15;13.02;;;7.60;99.90;;;;;;5135189;27;20058;-78
2022/12/23 09:34:13;;;;;;;75.80;14.23;;;7.60;99.90;;;;;;5116484;27;20067;-76
2022/12/23 09:36:39;;;;;;;62.13;12.85;;;7.50;99.90;;;;;;5134725;27;20084;-76
2022/12/23 09:39:05;;;;;;;59.72;12.90;;;7.60;99.90;;;;;;5115572;27;20062;-76
2022/12/23 09:41:55;;;;;;;53.25;12.68;;;7.60;99.90;;;;;;5134460;27;20526;-75
2022/12/23 09:44:34;;;;;;;52.60;11.18;;;7.60;99.90;;;;;;5134101;27;20462;-76
2022/12/23 09:47:03;;;;;;;44.72;10.90;;;7.70;99.90;;;;;;5116709;27;20465;-77
2022/12/23 09:49:29;;;;;;;50.47;12.10;;;7.70;99.90;;;;;;5115859;27;20117;-75
2022/12/23 09:52:04;;;;;;;47.92;10.63;;;7.70;99.90;;;;;;5134247;27;20192;-76
2022/12/23 09:54:44;;;;;;;45.13;10.07;;;7.80;99.90;;;;;;5134716;27;20474;-76
2022/12/23 09:57:20;;;;;;;47.85;10.48;;;7.80;99.90;;;;;;5134079;27;20096;-77
2022/12/23 10:00:13;;;;;;;56.17;10.35;;;7.80;99.90;;;;;;5115624;27;20047;-77
2022/12/23 10:02:46;;;;;;;43.22;10.50;;;7.80;99.90;;;;;;5134699;27;20070;-77
2022/12/23 10:05:22;;;;;;;50.17;11.13;;;7.80;99.90;;;;;;5099255;27;20107;-77
2022/12/23 10:08:06;;;;;;;55.17;12.52;;;7.80;99.90;;;;;;5134283;27;20047;-76
2022/12/23 10:10:41;;;;;;;47.85;11.07;;;7.90;99.90;;;;;;5115992;27;20046;-76
2022/12/23 10:13:18;;;;;;;55.58;11.65;;;7.90;99.90;;;;;;5133837;27;20066;-77
2022/12/23 10:15:47;;;;;;;52.15;12.38;;;8.00;99.90;;;;;;5134955;27;20146;-77
2022/12/23 10:18:38;;;;;;;55.97;10.95;;;8.00;99.90;;;;;;5135272;27;20156;-76
2022/12/23 10:21:22;;;;;;;47.85;10.88;;;8.00;99.90;;;;;;5134685;27;20050;-77
2022/12/23 10:23:51;;;;;;;51.60;11.10;;;8.10;99.90;;;;;;5134157;27;20099;-77
2022/12/23 10:26:49;;;;;;;67.10;16.75;;;8.10;99.90;;;;;;5133694;27;20047;-76
2022/12/23 10:29:20;;;;;;;58.22;13.75;;;8.20;99.90;;;;;;5115023;27;20053;-76
2022/12/23 10:31:52;;;;;;;61.05;14.32;;;8.20;99.90;;;;;;5133952;27;20047;-76
2022/12/23 10:34:37;;;;;;;50.70;12.27;;;8.20;99.90;;;;;;5133657;27;20047;-76
2022/12/23 10:37:09;;;;;;;47.22;11.60;;;8.30;99.90;;;;;;5133429;27;20108;-75
2022/12/23 10:39:49;;;;;;;48.50;11.90;;;8.30;99.90;;;;;;5133444;27;20047;-75
2022/12/23 10:42:31;;;;;;;47.15;11.10;;;8.30;99.90;;;;;;5133327;27;20164;-76
2022/12/23 10:45:07;;;;;;;48.47;11.32;;;8.30;99.90;;;;;;5115803;27;20375;-79
2022/12/23 10:47:51;;;;;;;43.97;10.85;;;8.30;99.90;;;;;;5133175;27;20079;-74
2022/12/23 10:50:23;;;;;;;35.25;9.82;;;8.30;99.90;;;;;;5134192;27;20432;-76
2022/12/23 10:52:51;;;;;;;48.03;11.30;;;8.40;99.90;;;;;;5133264;27;20072;-75
2022/12/23 10:55:32;;;;;;;45.00;10.95;;;8.30;99.90;;;;;;5115084;27;20079;-79
2022/12/23 10:58:07;;;;;;;39.72;11.30;;;8.30;99.90;;;;;;5133106;27;20073;-77
2022/12/23 11:00:37;;;;;;;45.78;10.93;;;8.30;99.90;;;;;;5133531;27;20039;-75
2022/12/23 11:03:17;;;;;;;51.42;12.80;;;8.30;99.90;;;;;;5114930;28;20047;-76
2022/12/23 11:05:45;;;;;;;52.30;11.90;;;8.40;99.90;;;;;;5133564;27;20110;-76
2022/12/23 11:08:11;;;;;;;48.08;11.70;;;8.40;99.90;;;;;;5133115;28;20123;-76
2022/12/23 11:10:38;;;;;;;50.60;11.63;;;8.40;99.90;;;;;;5115399;28;20147;-76
2022/12/23 11:13:04;;;;;;;49.38;12.55;;;8.30;99.90;;;;;;5114307;28;20043;-76
2022/12/23 11:15:37;;;;;;;50.47;12.02;;;8.40;99.90;;;;;;5132965;28;20043;-77
2022/12/23 11:18:11;;;;;;;45.80;10.52;;;8.40;99.90;;;;;;5114601;28;20050;-77
2022/12/23 11:20:39;;;;;;;46.65;12.77;;;8.50;99.90;;;;;;5133473;28;20406;-75
2022/12/23 11:23:24;;;;;;;51.10;12.13;;;8.50;99.90;;;;;;5114805;28;20419;-78
2022/12/23 11:26:10;;;;;;;56.58;12.23;;;8.50;99.90;;;;;;5132485;28;20502;-75
2022/12/23 11:28:39;;;;;;;54.63;13.60;;;8.50;99.90;;;;;;5132558;28;20504;-77
2022/12/23 11:31:10;;;;;;;64.10;14.43;;;8.50;99.90;;;;;;5081621;28;20047;-78
2022/12/23 11:33:50;;;;;;;58.97;11.88;;;8.40;99.90;;;;;;5115397;28;20431;-77
2022/12/23 11:36:18;;;;;;;61.10;13.30;;;8.50;99.90;;;;;;5133058;28;20047;-77
2022/12/23 11:39:09;;;;;;;56.42;11.75;;;8.50;99.90;;;;;;5133138;27;20047;-77
2022/12/23 11:41:46;;;;;;;65.03;13.80;;;8.40;99.90;;;;;;5132826;28;20055;-74
2022/12/23 11:44:29;;;;;;;59.25;14.20;;;8.40;99.90;;;;;;5133089;28;20039;-73
2022/12/23 11:46:55;;;;;;;59.13;12.90;;;8.50;99.90;;;;;;5133026;28;20375;-76
2022/12/23 11:49:24;;;;;;;53.00;11.70;;;8.40;99.90;;;;;;5132839;28;20036;-75
2022/12/23 11:52:01;;;;;;;48.78;10.75;;;8.50;99.90;;;;;;5133268;28;20146;-75
2022/12/23 11:54:28;;;;;;;39.15;10.68;;;8.60;99.90;;;;;;5114536;28;20043;-75
2022/12/23 11:56:54;;;;;;;43.85;9.60;;;8.60;99.90;;;;;;5132994;28;20057;-74
2022/12/23 11:59:28;;;;;;;42.33;10.23;;;8.60;99.90;;;;;;5132750;28;20373;-76
2022/12/23 12:01:57;;;;;;;43.13;9.13;;;8.60;99.90;;;;;;5133734;28;20410;-75
2022/12/23 12:04:25;;;;;;;39.78;9.80;;;8.60;99.90;;;;;;5132925;28;20123;-75
2022/12/23 12:06:52;;;;;;;40.50;10.07;;;8.70;99.90;;;;;;5132995;28;20062;-76
2022/12/23 12:09:19;;;;;;;37.55;8.85;;;8.70;99.90;;;;;;5114554;28;20039;-75
2022/12/23 12:11:49;;;;;;;30.88;8.27;;;8.70;99.90;;;;;;5115420;28;20421;-75
2022/12/23 12:14:29;;;;;;;44.00;9.13;;;8.70;99.90;;;;;;5134958;27;20055;-76
2022/12/23 12:17:07;;;;;;;36.30;9.43;;;8.70;99.90;;;;;;5137001;27;20082;-74
2022/12/23 12:19:45;;;;;;;51.17;11.70;;;8.60;99.90;;;;;;5118304;27;20459;-75
2022/12/23 12:22:20;;;;;;;44.67;10.75;;;8.60;99.90;;;;;;5136625;27;20043;-75
2022/12/23 12:24:52;;;;;;;54.78;11.68;;;8.60;99.90;;;;;;5137013;27;20046;-77
2022/12/23 12:27:21;;;;;;;58.78;12.15;;;8.60;99.90;;;;;;5136844;27;20039;-74
2022/12/23 12:29:52;;;;;;;56.92;11.80;;;8.50;99.90;;;;;;5118008;27;20046;-75
2022/12/23 12:32:31;;;;;;;54.58;11.73;;;8.70;99.90;;;;;;5136239;27;20096;-75
2022/12/23 12:34:57;;;;;;;56.85;14.45;;;8.60;99.90;;;;;;5136657;27;20054;-76
2022/12/23 12:37:37;;;;;;;49.17;11.43;;;8.60;99.90;;;;;;5135971;27;20043;-75
2022/12/23 12:40:13;;;;;;;75.95;16.65;;;8.60;99.90;;;;;;5136108;27;20131;-74
2022/12/23 12:42:51;;;;;;;56.78;12.95;;;8.60;99.90;;;;;;5117673;27;20047;-74
2022/12/23 12:45:36;;;;;;;59.60;13.10;;;8.60;99.90;;;;;;5136149;27;20424;-74
2022/12/23 12:48:26;;;;;;;53.85;12.45;;;8.50;99.90;;;;;;5136027;27;20490;-74
2022/12/23 12:51:01;;;;;;;25.10;7.03;;;8.50;99.90;;;;;;5117742;27;20485;-75
2022/12/23 12:53:29;;;;;;;43.83;9.25;;;8.60;99.90;;;;;;5118350;27;20051;-75
2022/12/23 12:56:14;;;;;;;51.00;11.38;;;8.70;99.90;;;;;;5117730;27;20047;-76
2022/12/23 12:58:43;;;;;;;66.57;15.35;;;8.70;99.90;;;;;;5135744;27;20042;-75
2022/12/23 13:01:23;;;;;;;56.10;13.70;;;8.60;99.90;;;;;;5135618;27;20050;-75
2022/12/23 13:04:04;;;;;;;54.88;12.40;;;8.50;99.90;;;;;;5117298;27;20058;-75
2022/12/23 13:06:39;;;;;;;57.42;13.60;;;8.60;99.90;;;;;;5117246;27;20054;-75
2022/12/23 13:09:46;;;;;;;51.92;11.90;;;8.60;99.90;;;;;;5135553;27;20039;-75
2022/12/23 13:12:33;;;;;;;62.28;13.40;;;8.50;99.90;;;;;;5135318;27;20060;-75